createdAt,value
2017-04-28T00:01:03.023Z,8.13
2017-04-28T00:02:17.076Z,8.16
2017-04-28T00:03:30.520Z,8.09
2017-04-28T00:04:43.951Z,8.13
2017-04-28T00:05:57.377Z,8.16
2017-04-28T00:07:10.842Z,8.03
2017-04-28T00:08:24.238Z,8.05
2017-04-28T00:09:37.934Z,8.05
2017-04-28T00:10:51.387Z,8.02
2017-04-28T00:12:05.169Z,8.05
2017-04-28T00:13:18.956Z,8.13
2017-04-28T00:14:32.703Z,8.14
2017-04-28T00:15:46.426Z,8.16
2017-04-28T00:17:00.246Z,8.14
2017-04-28T00:18:13.709Z,8.02
2017-04-28T00:19:27.291Z,8.05
2017-04-28T00:20:41.517Z,8.06
2017-04-28T00:21:55.079Z,8.05
2017-04-28T00:23:08.531Z,8.03
2017-04-28T00:24:21.976Z,8.02
2017-04-28T00:25:35.378Z,8.05
2017-04-28T00:26:48.807Z,8.08
2017-04-28T00:28:02.268Z,8.08
2017-04-28T00:29:16.478Z,8.06
2017-04-28T00:30:29.868Z,8.05
2017-04-28T00:31:43.510Z,8.01
2017-04-28T00:32:57.333Z,8.09
2017-04-28T00:34:10.771Z,8.13
2017-04-28T00:35:24.212Z,8.09
2017-04-28T00:36:37.765Z,8.05
2017-04-28T00:37:51.265Z,8.06
2017-04-28T00:39:04.736Z,8.03
2017-04-28T00:40:18.150Z,8.08
2017-04-28T00:41:31.731Z,8.02
2017-04-28T00:42:45.171Z,8.05
2017-04-28T00:43:58.625Z,8.08
2017-04-28T00:45:12.442Z,8.05
2017-04-28T00:46:25.863Z,8.05
2017-04-28T00:47:39.283Z,8.01
2017-04-28T00:48:53.111Z,8.01
2017-04-28T00:50:06.504Z,8.08
2017-04-28T00:51:19.936Z,8.02
2017-04-28T00:52:33.358Z,7.99
2017-04-28T00:53:46.763Z,8.02
2017-04-28T00:55:00.205Z,7.95
2017-04-28T00:56:13.616Z,7.99
2017-04-28T00:57:27.009Z,7.87
2017-04-28T00:58:40.522Z,7.85
2017-04-28T00:59:54.002Z,7.85
2017-04-28T01:01:07.445Z,7.93
2017-04-28T01:02:20.868Z,7.88
2017-04-28T01:03:34.274Z,7.85
2017-04-28T01:04:48.046Z,7.77
2017-04-28T01:06:01.561Z,7.83
2017-04-28T01:07:15.220Z,7.83
2017-04-28T01:08:28.618Z,7.85
2017-04-28T01:09:42.697Z,7.78
2017-04-28T01:10:56.468Z,7.74
2017-04-28T01:12:10.225Z,7.75
2017-04-28T01:13:24.058Z,7.77
2017-04-28T01:14:37.503Z,7.77
2017-04-28T01:15:51.006Z,7.75
2017-04-28T01:17:04.747Z,7.84
2017-04-28T01:18:18.990Z,7.74
2017-04-28T01:19:32.842Z,7.83
2017-04-28T01:20:46.312Z,7.85
2017-04-28T01:21:59.773Z,7.78
2017-04-28T01:23:13.190Z,7.81
2017-04-28T01:24:26.673Z,7.7
2017-04-28T01:25:40.340Z,7.81
2017-04-28T01:26:53.845Z,7.8
2017-04-28T01:28:07.305Z,7.77
2017-04-28T01:29:21.375Z,7.64
2017-04-28T01:30:34.841Z,7.69
2017-04-28T01:31:48.341Z,7.64
2017-04-28T01:33:02.211Z,7.67
2017-04-28T01:34:15.999Z,7.75
2017-04-28T01:35:29.441Z,7.64
2017-04-28T01:36:42.892Z,7.64
2017-04-28T01:37:56.812Z,7.61
2017-04-28T01:39:11.013Z,7.59
2017-04-28T01:40:24.415Z,7.59
2017-04-28T01:41:37.782Z,7.59
2017-04-28T01:42:51.221Z,7.67
2017-04-28T01:44:04.621Z,7.69
2017-04-28T01:45:18.013Z,7.61
2017-04-28T01:46:31.406Z,7.61
2017-04-28T01:47:45.192Z,7.64
2017-04-28T01:48:58.616Z,7.61
2017-04-28T01:50:12.045Z,7.58
2017-04-28T01:51:25.752Z,7.62
2017-04-28T01:52:39.407Z,7.56
2017-04-28T01:53:53.163Z,7.55
2017-04-28T01:55:06.621Z,7.53
2017-04-28T01:56:20.041Z,7.53
2017-04-28T01:57:33.447Z,7.58
2017-04-28T01:58:46.908Z,7.58
2017-04-28T02:00:00.797Z,7.56
2017-04-28T02:01:14.230Z,7.5
2017-04-28T02:02:27.671Z,7.55
2017-04-28T02:03:41.458Z,7.56
2017-04-28T02:04:55.207Z,7.62
2017-04-28T02:06:08.599Z,7.47
2017-04-28T02:07:22.020Z,7.46
2017-04-28T02:08:35.459Z,7.51
2017-04-28T02:09:48.890Z,7.5
2017-04-28T02:11:02.308Z,7.53
2017-04-28T02:12:16.045Z,7.5
2017-04-28T02:13:29.588Z,7.46
2017-04-28T02:14:43.393Z,7.55
2017-04-28T02:15:56.835Z,7.56
2017-04-28T02:17:10.299Z,7.61
2017-04-28T02:18:29.951Z,7.61
2017-04-28T02:19:43.778Z,7.59
2017-04-28T02:20:57.193Z,7.61
2017-04-28T02:22:10.658Z,7.61
2017-04-28T02:23:24.106Z,7.58
2017-04-28T02:24:37.653Z,7.59
2017-04-28T02:25:51.246Z,7.53
2017-04-28T02:27:05.221Z,7.48
2017-04-28T02:28:18.650Z,7.5
2017-04-28T02:29:32.611Z,7.47
2017-04-28T02:30:46.038Z,7.48
2017-04-28T02:31:59.489Z,7.47
2017-04-28T02:33:13.362Z,7.47
2017-04-28T02:34:28.313Z,7.41
2017-04-28T02:35:42.321Z,7.44
2017-04-28T02:36:56.218Z,7.48
2017-04-28T02:38:09.695Z,7.43
2017-04-28T02:39:23.480Z,7.5
2017-04-28T02:40:37.287Z,7.46
2017-04-28T02:41:50.742Z,7.47
2017-04-28T02:43:04.206Z,7.47
2017-04-28T02:44:17.992Z,7.48
2017-04-28T02:45:31.593Z,7.47
2017-04-28T02:46:45.166Z,7.5
2017-04-28T02:47:59.122Z,7.47
2017-04-28T02:49:13.229Z,7.44
2017-04-28T02:50:26.998Z,7.44
2017-04-28T02:51:40.464Z,7.41
2017-04-28T02:52:53.909Z,7.39
2017-04-28T02:54:07.429Z,7.39
2017-04-28T02:55:20.895Z,7.39
2017-04-28T02:56:34.337Z,7.47
2017-04-28T02:57:47.795Z,7.44
2017-04-28T02:59:01.273Z,7.37
2017-04-28T03:00:14.775Z,7.36
2017-04-28T03:01:28.247Z,7.29
2017-04-28T03:02:41.662Z,7.32
2017-04-28T03:03:55.408Z,7.29
2017-04-28T03:05:08.809Z,7.28
2017-04-28T03:06:22.890Z,7.28
2017-04-28T03:07:36.300Z,7.29
2017-04-28T03:08:49.860Z,7.28
2017-04-28T03:10:03.266Z,7.28
2017-04-28T03:11:16.680Z,7.26
2017-04-28T03:12:30.129Z,7.31
2017-04-28T03:13:43.650Z,7.26
2017-04-28T03:14:57.416Z,7.25
2017-04-28T03:16:10.859Z,7.21
2017-04-28T03:17:24.325Z,7.26
2017-04-28T03:18:38.027Z,7.23
2017-04-28T03:19:51.734Z,7.14
2017-04-28T03:21:05.658Z,7.13
2017-04-28T03:22:19.160Z,7.07
2017-04-28T03:23:32.631Z,7.11
2017-04-28T03:24:52.594Z,7.11
2017-04-28T03:26:06.039Z,7.11
2017-04-28T03:27:19.536Z,7.11
2017-04-28T03:28:32.932Z,7.23
2017-04-28T03:29:46.637Z,7.13
2017-04-28T03:31:00.024Z,7.1
2017-04-28T03:32:13.447Z,7.11
2017-04-28T03:33:26.910Z,7.05
2017-04-28T03:34:40.304Z,6.96
2017-04-28T03:35:53.700Z,6.97
2017-04-28T03:37:07.421Z,6.97
2017-04-28T03:38:20.872Z,7.03
2017-04-28T03:39:34.262Z,6.96
2017-04-28T03:40:48.188Z,6.93
2017-04-28T03:42:01.822Z,6.87
2017-04-28T03:43:15.584Z,6.89
2017-04-28T03:44:29.000Z,6.87
2017-04-28T03:45:42.732Z,6.74
2017-04-28T03:46:56.192Z,6.7
2017-04-28T03:48:09.657Z,6.74
2017-04-28T03:49:23.129Z,6.82
2017-04-28T03:50:36.906Z,6.82
2017-04-28T03:51:50.433Z,6.9
2017-04-28T03:53:03.984Z,6.85
2017-04-28T03:54:17.757Z,6.75
2017-04-28T03:55:31.160Z,6.8
2017-04-28T03:56:44.539Z,6.82
2017-04-28T03:57:57.990Z,6.74
2017-04-28T03:59:11.428Z,6.78
2017-04-28T04:00:24.972Z,6.75
2017-04-28T04:01:38.469Z,6.75
2017-04-28T04:02:51.845Z,6.71
2017-04-28T04:04:05.568Z,6.67
2017-04-28T04:05:19.044Z,6.65
2017-04-28T04:06:32.655Z,6.54
2017-04-28T04:07:46.092Z,6.56
2017-04-28T04:08:59.538Z,6.64
2017-04-28T04:10:13.019Z,6.57
2017-04-28T04:11:26.450Z,6.54
2017-04-28T04:12:39.840Z,6.71
2017-04-28T04:13:53.253Z,6.75
2017-04-28T04:15:06.691Z,6.85
2017-04-28T04:16:20.121Z,6.83
2017-04-28T04:17:33.546Z,6.93
2017-04-28T04:18:47.270Z,7.04
2017-04-28T04:20:00.799Z,7.07
2017-04-28T04:21:14.293Z,7.11
2017-04-28T04:22:27.992Z,7.13
2017-04-28T04:23:41.425Z,7.28
2017-04-28T04:24:54.864Z,7.4
2017-04-28T04:26:08.640Z,7.31
2017-04-28T04:27:22.158Z,7.55
2017-04-28T04:28:35.583Z,7.48
2017-04-28T04:29:48.971Z,7.85
2017-04-28T04:31:02.753Z,8.14
2017-04-28T04:32:16.171Z,8.24
2017-04-28T04:33:29.591Z,8.18
2017-04-28T04:34:43.351Z,8.11
2017-04-28T04:35:56.776Z,8.11
2017-04-28T04:37:10.248Z,8.16
2017-04-28T04:38:23.679Z,8.31
2017-04-28T04:39:37.136Z,8.54
2017-04-28T04:40:52.341Z,8.82
2017-04-28T04:42:05.825Z,8.93
2017-04-28T04:43:19.481Z,8.87
2017-04-28T04:44:32.923Z,8.72
2017-04-28T04:45:46.321Z,8.92
2017-04-28T04:46:59.826Z,9.39
2017-04-28T04:48:13.279Z,10.02
2017-04-28T04:49:26.750Z,10.38
2017-04-28T04:50:40.145Z,10.8
2017-04-28T04:51:53.564Z,10.95
2017-04-28T04:53:07.160Z,11.12
2017-04-28T04:54:20.580Z,11.44
2017-04-28T04:55:33.990Z,11.26
2017-04-28T04:56:47.397Z,10.59
2017-04-28T04:58:00.851Z,10.67
2017-04-28T04:59:14.574Z,10.82
2017-04-28T05:00:28.421Z,10.58
2017-04-28T05:01:41.817Z,10.27
2017-04-28T05:02:55.288Z,10.49
2017-04-28T05:04:08.681Z,10.75
2017-04-28T05:05:22.543Z,10.94
2017-04-28T05:06:36.109Z,10.61
2017-04-28T05:07:49.583Z,10.25
2017-04-28T05:09:03.072Z,9.76
2017-04-28T05:10:16.478Z,9.63
2017-04-28T05:11:30.188Z,9.36
2017-04-28T05:12:43.827Z,9.36
2017-04-28T05:13:57.430Z,9
2017-04-28T05:15:11.284Z,8.86
2017-04-28T05:16:25.402Z,8.77
2017-04-28T05:17:41.863Z,8.71
2017-04-28T05:18:55.309Z,8.61
2017-04-28T05:20:08.860Z,8.63
2017-04-28T05:21:22.263Z,8.57
2017-04-28T05:22:35.645Z,8.77
2017-04-28T05:23:49.297Z,8.71
2017-04-28T05:25:02.770Z,8.74
2017-04-28T05:26:16.215Z,8.72
2017-04-28T05:27:30.240Z,8.78
2017-04-28T05:28:43.661Z,8.81
2017-04-28T05:29:57.151Z,8.81
2017-04-28T05:31:11.129Z,8.74
2017-04-28T05:32:24.963Z,8.79
2017-04-28T05:33:38.417Z,8.75
2017-04-28T05:34:52.649Z,8.87
2017-04-28T05:36:06.042Z,8.81
2017-04-28T05:37:19.629Z,8.97
2017-04-28T05:38:33.642Z,8.92
2017-04-28T05:39:47.098Z,8.87
2017-04-28T05:41:00.587Z,9.12
2017-04-28T05:42:13.992Z,9.02
2017-04-28T05:43:27.432Z,9.13
2017-04-28T05:44:40.872Z,9.19
2017-04-28T05:45:54.368Z,9.3
2017-04-28T05:47:08.104Z,9.24
2017-04-28T05:48:21.544Z,9.21
2017-04-28T05:49:34.989Z,9.42
2017-04-28T05:50:48.464Z,9.55
2017-04-28T05:52:02.503Z,9.56
2017-04-28T05:53:16.172Z,9.52
2017-04-28T05:54:48.764Z,9.62
2017-04-28T05:56:02.209Z,9.49
2017-04-28T05:57:15.726Z,9.48
2017-04-28T05:58:29.498Z,9.56
2017-04-28T05:59:42.901Z,9.51
2017-04-28T06:00:56.355Z,9.48
2017-04-28T06:02:10.023Z,9.55
2017-04-28T06:03:23.457Z,9.66
2017-04-28T06:04:37.002Z,9.64
2017-04-28T06:05:50.613Z,9.66
2017-04-28T06:07:04.390Z,9.64
2017-04-28T06:08:17.895Z,9.74
2017-04-28T06:09:31.325Z,9.77
2017-04-28T06:10:45.432Z,9.84
2017-04-28T06:11:58.930Z,9.92
2017-04-28T06:13:12.375Z,9.88
2017-04-28T06:15:29.922Z,10.02
2017-04-28T06:16:43.688Z,10.03
2017-04-28T06:17:57.570Z,10.17
2017-04-28T06:19:11.089Z,10.24
2017-04-28T06:20:24.809Z,10.21
2017-04-28T06:21:38.578Z,10.1
2017-04-28T06:22:52.077Z,10.17
2017-04-28T06:24:05.500Z,10.2
2017-04-28T06:25:20.405Z,10.03
2017-04-28T06:26:33.823Z,10.07
2017-04-28T06:27:48.213Z,10.12
2017-04-28T06:29:03.543Z,10.23
2017-04-28T06:30:17.438Z,10.27
2017-04-28T06:31:31.830Z,10.24
2017-04-28T06:32:46.305Z,10.23
2017-04-28T06:34:00.055Z,10.31
2017-04-28T06:35:13.795Z,10.28
2017-04-28T06:36:27.473Z,10.33
2017-04-28T06:37:41.335Z,10.21
2017-04-28T06:38:54.806Z,10.25
2017-04-28T06:40:08.237Z,10.34
2017-04-28T06:41:21.702Z,10.38
2017-04-28T06:42:35.116Z,10.39
2017-04-28T06:43:48.528Z,10.31
2017-04-28T06:45:02.341Z,10.24
2017-04-28T06:46:16.046Z,10.12
2017-04-28T06:47:29.459Z,10.1
2017-04-28T06:48:42.917Z,10.15
2017-04-28T06:49:56.387Z,10.23
2017-04-28T06:51:10.035Z,10.17
2017-04-28T06:52:23.774Z,10.27
2017-04-28T06:53:37.570Z,10.31
2017-04-28T06:54:51.106Z,10.39
2017-04-28T06:56:04.519Z,10.57
2017-04-28T06:57:18.166Z,10.51
2017-04-28T06:58:31.899Z,10.48
2017-04-28T06:59:45.348Z,10.49
2017-04-28T07:00:58.813Z,10.61
2017-04-28T07:02:12.232Z,10.67
2017-04-28T07:03:26.263Z,10.65
2017-04-28T07:04:39.689Z,10.69
2017-04-28T07:05:53.478Z,10.65
2017-04-28T07:07:06.876Z,10.65
2017-04-28T07:08:20.270Z,10.62
2017-04-28T07:09:33.674Z,10.68
2017-04-28T07:10:47.321Z,10.79
2017-04-28T07:12:00.783Z,10.87
2017-04-28T07:13:14.322Z,10.83
2017-04-28T07:14:27.781Z,10.77
2017-04-28T07:15:41.824Z,10.75
2017-04-28T07:16:55.394Z,10.69
2017-04-28T07:18:09.124Z,10.76
2017-04-28T07:19:22.582Z,10.79
2017-04-28T07:20:36.000Z,10.83
2017-04-28T07:21:49.500Z,10.9
2017-04-28T07:23:03.225Z,11.1
2017-04-28T07:24:16.653Z,11.19
2017-04-28T07:25:30.067Z,11.25
2017-04-28T07:26:43.900Z,11.41
2017-04-28T07:27:57.647Z,11.2
2017-04-28T07:29:11.080Z,11.25
2017-04-28T07:30:24.508Z,11.18
2017-04-28T07:31:37.922Z,11.12
2017-04-28T07:32:51.503Z,11.04
2017-04-28T07:34:05.034Z,10.92
2017-04-28T07:35:18.547Z,11.13
2017-04-28T07:36:32.217Z,11.23
2017-04-28T07:37:45.777Z,11.22
2017-04-28T07:38:59.234Z,11.26
2017-04-28T07:40:12.678Z,11.2
2017-04-28T07:41:26.224Z,11.22
2017-04-28T07:42:39.775Z,11.23
2017-04-28T07:43:53.351Z,11.22
2017-04-28T07:45:07.048Z,11.26
2017-04-28T07:46:20.542Z,11.22
2017-04-28T07:47:34.057Z,11.05
2017-04-28T07:48:47.675Z,11.23
2017-04-28T07:50:01.599Z,11.22
2017-04-28T07:51:15.108Z,11.31
2017-04-28T07:52:28.768Z,11.35
2017-04-28T07:53:42.633Z,11.35
2017-04-28T07:54:57.395Z,11.37
2017-04-28T07:56:10.966Z,11.38
2017-04-28T07:57:24.868Z,11.3
2017-04-28T07:58:38.392Z,11.34
2017-04-28T07:59:52.211Z,11.35
2017-04-28T08:01:06.124Z,11.45
2017-04-28T08:02:19.663Z,11.45
2017-04-28T08:03:33.242Z,11.4
2017-04-28T08:04:47.497Z,11.49
2017-04-28T08:06:01.131Z,11.55
2017-04-28T08:07:14.715Z,11.49
2017-04-28T08:08:28.393Z,11.51
2017-04-28T08:09:56.779Z,11.59
2017-04-28T08:11:10.561Z,11.62
2017-04-28T08:12:24.343Z,11.62
2017-04-28T08:13:37.808Z,11.6
2017-04-28T08:14:51.494Z,11.63
2017-04-28T08:16:05.497Z,11.56
2017-04-28T08:17:18.949Z,11.52
2017-04-28T08:18:33.048Z,11.73
2017-04-28T08:19:46.842Z,11.67
2017-04-28T08:21:00.656Z,11.71
2017-04-28T08:22:14.164Z,11.85
2017-04-28T08:23:27.613Z,11.96
2017-04-28T08:25:00.335Z,12.03
2017-04-28T08:26:13.852Z,12.07
2017-04-28T08:27:27.378Z,12
2017-04-28T08:28:40.862Z,12.1
2017-04-28T08:29:54.344Z,11.99
2017-04-28T08:31:08.143Z,12.08
2017-04-28T08:32:21.722Z,12.23
2017-04-28T08:33:35.287Z,12.23
2017-04-28T08:34:48.745Z,12.26
2017-04-28T08:36:02.262Z,12.21
2017-04-28T08:37:15.736Z,12.23
2017-04-28T08:38:29.457Z,12.33
2017-04-28T08:39:43.305Z,12.29
2017-04-28T08:40:57.461Z,12.43
2017-04-28T08:42:10.952Z,12.45
2017-04-28T08:43:24.393Z,12.55
2017-04-28T08:44:37.884Z,12.69
2017-04-28T08:45:51.395Z,12.75
2017-04-28T08:47:05.623Z,12.7
2017-04-28T08:48:19.414Z,12.72
2017-04-28T08:49:33.615Z,12.68
2017-04-28T08:50:47.558Z,12.88
2017-04-28T08:52:02.506Z,12.88
2017-04-28T08:53:16.383Z,12.83
2017-04-28T08:54:29.968Z,12.87
2017-04-28T08:55:43.459Z,12.9
2017-04-28T08:56:57.194Z,12.87
2017-04-28T08:58:11.080Z,12.93
2017-04-28T08:59:24.706Z,13.06
2017-04-28T09:00:38.855Z,13.19
2017-04-28T09:01:52.345Z,13.3
2017-04-28T09:03:06.679Z,13.57
2017-04-28T09:04:21.306Z,13.7
2017-04-28T09:05:35.830Z,13.67
2017-04-28T09:06:49.390Z,13.73
2017-04-28T09:08:02.961Z,13.75
2017-04-28T09:09:16.862Z,13.91
2017-04-28T09:10:30.483Z,13.83
2017-04-28T09:11:44.673Z,13.94
2017-04-28T09:12:58.357Z,14.08
2017-04-28T09:14:11.846Z,14.15
2017-04-28T09:15:25.622Z,14.05
2017-04-28T09:16:39.519Z,14.12
2017-04-28T09:17:53.276Z,14.03
2017-04-28T09:19:07.021Z,14.08
2017-04-28T09:20:20.547Z,14.23
2017-04-28T09:21:34.361Z,14.36
2017-04-28T09:22:48.219Z,14.55
2017-04-28T09:24:02.043Z,14.56
2017-04-28T09:25:15.518Z,14.67
2017-04-28T09:26:28.972Z,15.05
2017-04-28T09:27:42.417Z,14.96
2017-04-28T09:28:56.050Z,14.81
2017-04-28T09:30:10.183Z,14.67
2017-04-28T09:31:23.717Z,14.82
2017-04-28T09:32:37.142Z,15.02
2017-04-28T09:33:50.986Z,14.96
2017-04-28T09:35:04.618Z,14.92
2017-04-28T09:36:18.094Z,14.87
2017-04-28T09:37:31.915Z,14.81
2017-04-28T09:38:45.362Z,14.53
2017-04-28T09:39:58.962Z,14.37
2017-04-28T09:41:12.714Z,14.34
2017-04-28T09:42:26.273Z,14.08
2017-04-28T09:43:52.453Z,14.23
2017-04-28T09:45:06.635Z,14.28
2017-04-28T09:46:20.074Z,14.22
2017-04-28T09:47:33.474Z,14.13
2017-04-28T09:48:47.311Z,14.3
2017-04-28T09:50:00.861Z,14.05
2017-04-28T09:51:14.300Z,14.03
2017-04-28T09:52:28.080Z,14.19
2017-04-28T09:53:41.479Z,14.2
2017-04-28T09:54:54.890Z,14.33
2017-04-28T09:56:09.138Z,14.44
2017-04-28T09:57:22.861Z,14.45
2017-04-28T09:58:36.579Z,14.41
2017-04-28T09:59:50.342Z,14.49
2017-04-28T10:01:03.883Z,14.25
2017-04-28T10:02:17.321Z,14.33
2017-04-28T10:03:30.841Z,14.34
2017-04-28T10:04:44.611Z,14.44
2017-04-28T10:05:58.494Z,14.3
2017-04-28T10:07:12.016Z,14.37
2017-04-28T10:08:25.616Z,14.13
2017-04-28T10:09:39.042Z,14.13
2017-04-28T10:10:52.549Z,14.08
2017-04-28T10:12:06.150Z,14
2017-04-28T10:13:19.585Z,14.07
2017-04-28T10:14:33.091Z,14.15
2017-04-28T10:15:46.639Z,14.34
2017-04-28T10:17:00.462Z,14.45
2017-04-28T10:18:13.881Z,14.53
2017-04-28T10:19:27.308Z,14.49
2017-04-28T10:20:40.753Z,14.58
2017-04-28T10:21:54.230Z,14.71
2017-04-28T10:23:07.687Z,14.73
2017-04-28T10:24:21.136Z,14.92
2017-04-28T10:25:35.157Z,15.04
2017-04-28T10:26:48.649Z,15.12
2017-04-28T10:28:02.388Z,15.04
2017-04-28T10:29:15.899Z,15.07
2017-04-28T10:30:29.367Z,15.05
2017-04-28T10:31:42.838Z,15.05
2017-04-28T10:32:56.322Z,15.11
2017-04-28T10:34:10.134Z,15.44
2017-04-28T10:35:23.690Z,15.57
2017-04-28T10:36:37.436Z,15.73
2017-04-28T10:37:52.221Z,15.84
2017-04-28T10:39:06.241Z,15.87
2017-04-28T10:40:20.043Z,15.69
2017-04-28T10:41:33.619Z,15.62
2017-04-28T10:42:47.392Z,15.72
2017-04-28T10:44:06.024Z,15.85
2017-04-28T10:45:19.781Z,15.81
2017-04-28T10:46:33.578Z,15.84
2017-04-28T10:47:47.378Z,15.94
2017-04-28T10:49:00.975Z,15.57
2017-04-28T10:50:14.527Z,15.59
2017-04-28T10:51:28.600Z,15.54
2017-04-28T10:52:42.382Z,15.44
2017-04-28T10:53:56.196Z,15.48
2017-04-28T10:55:09.673Z,15.27
2017-04-28T10:56:23.277Z,14.81
2017-04-28T10:57:37.171Z,14.55
2017-04-28T10:58:50.669Z,14.33
2017-04-28T11:00:04.126Z,14.33
2017-04-28T11:01:24.143Z,14.07
2017-04-28T11:02:37.639Z,13.93
2017-04-28T11:03:51.196Z,13.79
2017-04-28T11:05:04.721Z,13.85
2017-04-28T11:06:18.275Z,13.73
2017-04-28T11:07:32.110Z,13.7
2017-04-28T11:08:46.063Z,13.71
2017-04-28T11:09:59.838Z,13.78
2017-04-28T11:11:13.403Z,13.7
2017-04-28T11:12:27.201Z,13.73
2017-04-28T11:13:40.862Z,13.61
2017-04-28T11:14:54.375Z,13.6
2017-04-28T11:16:08.481Z,13.39
2017-04-28T11:17:22.560Z,13.3
2017-04-28T11:18:36.281Z,13.31
2017-04-28T11:20:03.023Z,13.45
2017-04-28T11:21:16.851Z,13.54
2017-04-28T11:22:30.352Z,13.68
2017-04-28T11:24:35.122Z,13.91
2017-04-28T11:25:48.651Z,14.11
2017-04-28T11:27:02.117Z,14.25
2017-04-28T11:28:15.637Z,14.25
2017-04-28T11:29:29.404Z,14.4
2017-04-28T11:30:42.921Z,14.23
2017-04-28T11:31:56.350Z,14.31
2017-04-28T11:33:09.852Z,14.22
2017-04-28T11:34:23.522Z,14.45
2017-04-28T11:35:37.369Z,14.51
2017-04-28T11:36:51.217Z,14.44
2017-04-28T11:38:04.717Z,14.52
2017-04-28T11:39:18.254Z,14.89
2017-04-28T11:40:31.756Z,14.73
2017-04-28T11:41:45.605Z,14.53
2017-04-28T11:42:59.414Z,14.67
2017-04-28T11:44:13.275Z,14.86
2017-04-28T11:45:27.286Z,15
2017-04-28T11:46:40.874Z,15.04
2017-04-28T11:47:54.387Z,15.04
2017-04-28T11:49:08.235Z,15.15
2017-04-28T11:50:22.163Z,15.17
2017-04-28T11:51:35.979Z,15.18
2017-04-28T11:52:50.128Z,15.23
2017-04-28T11:54:03.964Z,15.14
2017-04-28T11:55:17.598Z,14.66
2017-04-28T11:56:32.149Z,14.77
2017-04-28T11:57:45.993Z,14.59
2017-04-28T11:58:59.881Z,14.67
2017-04-28T12:00:13.854Z,14.78
2017-04-28T12:01:27.545Z,14.92
2017-04-28T12:02:41.825Z,14.89
2017-04-28T12:03:56.736Z,14.77
2017-04-28T12:05:10.351Z,14.74
2017-04-28T12:06:23.822Z,14.74
2017-04-28T12:07:37.719Z,14.81
2017-04-28T12:08:51.281Z,15.08
2017-04-28T12:10:05.252Z,15.12
2017-04-28T12:11:18.775Z,15.25
2017-04-28T12:12:32.740Z,15.29
2017-04-28T12:13:46.441Z,15.43
2017-04-28T12:14:59.908Z,15.51
2017-04-28T12:16:13.384Z,15.57
2017-04-28T12:18:13.851Z,15.63
2017-04-28T12:19:27.389Z,15.36
2017-04-28T12:20:43.118Z,15.15
2017-04-28T12:21:56.821Z,15.12
2017-04-28T12:23:10.414Z,15.05
2017-04-28T12:24:23.997Z,15.18
2017-04-28T12:25:37.608Z,15.27
2017-04-28T12:26:51.099Z,15.3
2017-04-28T12:28:04.731Z,15.26
2017-04-28T12:29:18.571Z,15.44
2017-04-28T12:30:32.114Z,15.48
2017-04-28T12:31:45.647Z,15.62
2017-04-28T12:32:59.345Z,15.35
2017-04-28T12:34:12.899Z,15.29
2017-04-28T12:35:26.518Z,15.27
2017-04-28T12:36:39.993Z,15.26
2017-04-28T12:37:53.598Z,15.23
2017-04-28T12:39:07.874Z,14.97
2017-04-28T12:40:21.452Z,14.93
2017-04-28T12:41:35.957Z,14.9
2017-04-28T12:42:49.761Z,14.79
2017-04-28T12:44:03.734Z,14.78
2017-04-28T12:45:17.421Z,14.86
2017-04-28T12:46:30.916Z,14.78
2017-04-28T12:47:44.705Z,14.94
2017-04-28T12:48:58.429Z,14.99
2017-04-28T12:50:12.303Z,15.1
2017-04-28T12:51:39.289Z,14.96
2017-04-28T12:52:52.809Z,14.97
2017-04-28T12:54:06.411Z,14.79
2017-04-28T12:55:20.254Z,15.02
2017-04-28T12:56:34.031Z,14.92
2017-04-28T12:57:47.534Z,14.99
2017-04-28T12:59:00.985Z,15
2017-04-28T13:00:14.583Z,14.99
2017-04-28T13:01:28.879Z,14.93
2017-04-28T13:02:42.780Z,15.05
2017-04-28T13:03:56.580Z,15.15
2017-04-28T13:05:10.094Z,15.25
2017-04-28T13:06:23.602Z,15.43
2017-04-28T13:07:37.146Z,15.51
2017-04-28T13:08:50.644Z,15.57
2017-04-28T13:10:04.910Z,15.52
2017-04-28T13:11:18.887Z,15.44
2017-04-28T13:12:32.337Z,15.43
2017-04-28T13:13:45.794Z,15.36
2017-04-28T13:14:59.387Z,15.59
2017-04-28T13:16:12.839Z,15.51
2017-04-28T13:17:26.343Z,15.48
2017-04-28T13:18:39.821Z,15.5
2017-04-28T13:19:53.940Z,15.44
2017-04-28T13:21:07.638Z,15.15
2017-04-28T13:22:21.641Z,15.04
2017-04-28T13:23:35.065Z,15.11
2017-04-28T13:24:49.091Z,14.97
2017-04-28T13:26:03.143Z,14.99
2017-04-28T13:27:17.131Z,14.99
2017-04-28T13:28:30.864Z,14.94
2017-04-28T13:29:44.941Z,14.82
2017-04-28T13:30:58.999Z,14.71
2017-04-28T13:32:12.443Z,14.67
2017-04-28T13:33:26.199Z,14.7
2017-04-28T13:34:39.762Z,14.66
2017-04-28T13:35:53.235Z,14.7
2017-04-28T13:37:06.742Z,14.62
2017-04-28T13:38:20.196Z,14.7
2017-04-28T13:39:33.671Z,14.81
2017-04-28T13:40:47.606Z,14.85
2017-04-28T13:42:01.196Z,14.63
2017-04-28T13:43:14.999Z,14.59
2017-04-28T13:44:28.528Z,14.58
2017-04-28T13:45:42.502Z,14.63
2017-04-28T13:46:56.101Z,14.74
2017-04-28T13:48:09.582Z,14.68
2017-04-28T13:49:23.397Z,14.67
2017-04-28T13:50:36.861Z,14.81
2017-04-28T13:51:50.660Z,14.86
2017-04-28T13:53:04.222Z,14.92
2017-04-28T13:54:17.967Z,14.96
2017-04-28T13:55:31.829Z,14.96
2017-04-28T13:56:45.263Z,14.97
2017-04-28T13:57:58.823Z,15.07
2017-04-28T13:59:12.258Z,15.26
2017-04-28T14:00:26.017Z,15.22
2017-04-28T14:01:39.427Z,15.32
2017-04-28T14:02:52.994Z,15.25
2017-04-28T14:04:06.434Z,15.39
2017-04-28T14:05:20.373Z,15.36
2017-04-28T14:06:33.835Z,15.36
2017-04-28T14:07:47.585Z,15.45
2017-04-28T14:09:01.078Z,15.47
2017-04-28T14:10:14.569Z,15.54
2017-04-28T14:11:28.003Z,15.25
2017-04-28T14:12:41.778Z,15.32
2017-04-28T14:13:55.686Z,15.23
2017-04-28T14:15:09.146Z,15.27
2017-04-28T14:16:22.857Z,15.08
2017-04-28T14:17:36.628Z,14.97
2017-04-28T14:18:50.117Z,15.12
2017-04-28T14:20:04.221Z,15.18
2017-04-28T14:21:18.542Z,15.23
2017-04-28T14:22:32.048Z,15.27
2017-04-28T14:23:46.025Z,15.25
2017-04-28T14:24:59.805Z,15.23
2017-04-28T14:26:13.256Z,15.22
2017-04-28T14:27:27.312Z,15.07
2017-04-28T14:28:43.275Z,15.04
2017-04-28T14:30:12.927Z,15.02
2017-04-28T14:31:29.407Z,15.05
2017-04-28T14:32:47.542Z,15.04
2017-04-28T14:34:05.964Z,14.77
2017-04-28T14:35:20.698Z,14.74
2017-04-28T14:36:34.141Z,14.71
2017-04-28T14:37:47.732Z,14.67
2017-04-28T14:39:01.236Z,14.78
2017-04-28T14:40:15.232Z,14.77
2017-04-28T14:41:28.683Z,14.81
2017-04-28T14:42:42.408Z,14.78
2017-04-28T14:43:55.886Z,15
2017-04-28T14:45:09.401Z,14.82
2017-04-28T14:46:23.177Z,14.82
2017-04-28T14:47:36.936Z,14.7
2017-04-28T14:48:50.684Z,14.79
2017-04-28T14:50:04.153Z,14.79
2017-04-28T14:51:17.719Z,14.81
2017-04-28T14:52:31.177Z,14.85
2017-04-28T14:53:44.626Z,14.99
2017-04-28T14:54:58.069Z,14.94
2017-04-28T14:56:11.706Z,15.07
2017-04-28T14:57:25.514Z,15.25
2017-04-28T14:58:39.029Z,15.14
2017-04-28T14:59:52.546Z,15.12
2017-04-28T15:01:06.552Z,15.11
2017-04-28T15:02:20.083Z,15.08
2017-04-28T15:03:34.109Z,15.12
2017-04-28T15:04:47.592Z,15.07
2017-04-28T15:07:32.266Z,14.99
2017-04-28T15:08:47.217Z,15.04
2017-04-28T15:10:00.709Z,15.07
2017-04-28T15:11:14.602Z,15.17
2017-04-28T15:12:28.173Z,15.12
2017-04-28T15:13:42.092Z,15.23
2017-04-28T15:14:55.651Z,15.26
2017-04-28T15:16:09.328Z,15.27
2017-04-28T15:17:23.345Z,15.29
2017-04-28T15:18:37.280Z,15.26
2017-04-28T15:19:51.137Z,15.17
2017-04-28T15:21:04.674Z,14.97
2017-04-28T15:22:18.992Z,15
2017-04-28T15:23:33.115Z,14.9
2017-04-28T15:24:46.670Z,14.79
2017-04-28T15:26:00.238Z,14.81
2017-04-28T15:27:14.328Z,14.89
2017-04-28T15:28:28.869Z,14.97
2017-04-28T15:29:47.137Z,14.93
2017-04-28T15:31:01.629Z,14.9
2017-04-28T15:32:15.166Z,14.9
2017-04-28T15:33:29.466Z,14.86
2017-04-28T15:34:43.479Z,14.85
2017-04-28T15:35:57.155Z,14.82
2017-04-28T15:37:10.863Z,14.81
2017-04-28T15:38:25.005Z,14.99
2017-04-28T15:39:38.581Z,14.92
2017-04-28T15:40:52.267Z,14.82
2017-04-28T15:42:06.472Z,14.79
2017-04-28T15:43:20.726Z,14.9
2017-04-28T15:44:34.438Z,14.81
2017-04-28T15:45:48.370Z,14.79
2017-04-28T15:47:02.464Z,14.78
2017-04-28T15:48:16.441Z,14.7
2017-04-28T15:49:31.084Z,14.71
2017-04-28T15:50:46.242Z,14.61
2017-04-28T15:52:00.209Z,14.56
2017-04-28T15:53:14.794Z,14.59
2017-04-28T15:54:28.477Z,14.55
2017-04-28T15:55:42.640Z,14.44
2017-04-28T15:56:56.380Z,14.45
2017-04-28T15:58:12.072Z,14.44
2017-04-28T15:59:28.460Z,14.41
2017-04-28T16:00:42.669Z,14.52
2017-04-28T16:01:56.658Z,14.52
2017-04-28T16:03:10.785Z,14.45
2017-04-28T16:04:24.760Z,14.38
2017-04-28T16:05:38.490Z,14.2
2017-04-28T16:06:52.182Z,14.3
2017-04-28T16:08:06.587Z,14.28
2017-04-28T16:09:21.434Z,14.34
2017-04-28T16:10:35.492Z,14.26